createdAt,value
2023-01-29T00:01:08.942Z,21.40
2023-01-29T00:03:37.084Z,31.00
2023-01-29T00:06:06.664Z,22.75
2023-01-29T00:08:35.102Z,23.50
2023-01-29T00:11:03.626Z,22.60
2023-01-29T00:13:31.803Z,29.75
2023-01-29T00:16:00.155Z,25.00
2023-01-29T00:18:29.899Z,25.80
2023-01-29T00:20:57.966Z,23.00
2023-01-29T00:23:26.016Z,27.00
2023-01-29T00:25:54.071Z,19.50
2023-01-29T00:28:22.107Z,19.00
2023-01-29T00:30:50.162Z,26.00
2023-01-29T00:33:18.203Z,22.40
2023-01-29T00:35:48.565Z,22.50
2023-01-29T00:38:16.599Z,23.80
2023-01-29T00:41:02.374Z,27.00
2023-01-29T00:43:47.783Z,18.00
2023-01-29T00:46:15.868Z,28.20
2023-01-29T00:48:43.958Z,23.20
2023-01-29T00:51:13.369Z,17.00
2023-01-29T00:53:41.410Z,22.00
2023-01-29T00:56:09.473Z,31.80
2023-01-29T00:58:37.515Z,26.75
2023-01-29T01:01:05.870Z,26.00
2023-01-29T01:03:35.251Z,25.00
2023-01-29T01:06:06.795Z,21.60
2023-01-29T01:08:53.558Z,27.00
2023-01-29T01:11:21.972Z,29.00
2023-01-29T01:13:50.031Z,26.80
2023-01-29T01:16:21.124Z,31.80
2023-01-29T01:18:49.316Z,23.25
2023-01-29T01:21:18.265Z,32.20
2023-01-29T01:23:48.408Z,31.00
2023-01-29T01:26:16.481Z,33.00
2023-01-29T01:28:44.579Z,32.50
2023-01-29T01:31:13.472Z,34.20
2023-01-29T01:33:41.722Z,26.80
2023-01-29T01:36:10.131Z,26.20
2023-01-29T01:38:44.376Z,28.40
2023-01-29T01:41:14.592Z,27.75
2023-01-29T01:43:50.257Z,26.60
2023-01-29T01:46:18.398Z,32.25
2023-01-29T01:48:46.660Z,29.25
2023-01-29T01:51:14.699Z,29.00
2023-01-29T01:53:44.167Z,34.25
2023-01-29T01:56:15.222Z,32.20
2023-01-29T01:58:44.744Z,27.80
2023-01-29T02:01:12.919Z,31.20
2023-01-29T02:04:00.668Z,35.00
2023-01-29T02:06:45.981Z,37.40
2023-01-29T02:09:33.898Z,26.00
2023-01-29T02:12:04.125Z,34.80
2023-01-29T02:14:34.556Z,30.40
2023-01-29T02:17:02.722Z,36.60
2023-01-29T02:19:38.365Z,36.50
2023-01-29T02:22:45.099Z,42.25
2023-01-29T02:25:41.056Z,30.50
2023-01-29T02:28:15.537Z,33.50
2023-01-29T02:30:45.941Z,30.60
2023-01-29T02:33:18.131Z,31.25
2023-01-29T02:35:47.702Z,33.60
2023-01-29T02:38:19.018Z,36.50
2023-01-29T02:40:51.438Z,33.20
2023-01-29T02:43:28.640Z,29.00
2023-01-29T02:46:01.966Z,37.50
2023-01-29T02:48:34.315Z,35.20
2023-01-29T02:51:03.818Z,31.20
2023-01-29T02:53:35.203Z,30.40
2023-01-29T02:56:04.925Z,36.60
2023-01-29T02:58:35.863Z,37.80
2023-01-29T03:01:06.139Z,40.60
2023-01-29T03:03:36.830Z,34.00
2023-01-29T03:06:07.422Z,34.00
2023-01-29T03:08:42.933Z,40.50
2023-01-29T03:11:14.180Z,39.75
2023-01-29T03:13:46.773Z,35.50
2023-01-29T03:16:19.627Z,39.50
2023-01-29T03:18:51.286Z,33.50
2023-01-29T03:21:40.128Z,38.25
2023-01-29T03:24:30.152Z,38.20
2023-01-29T03:27:17.517Z,36.00
2023-01-29T03:30:05.214Z,40.20
2023-01-29T03:32:53.692Z,41.33
2023-01-29T03:35:33.483Z,40.80
2023-01-29T03:38:02.177Z,44.80
2023-01-29T03:40:30.514Z,38.60
2023-01-29T03:43:04.590Z,35.75
2023-01-29T03:45:38.368Z,34.20
2023-01-29T03:48:08.642Z,39.75
2023-01-29T03:50:39.393Z,44.80
2023-01-29T03:53:11.220Z,35.25
2023-01-29T03:55:41.714Z,36.20
2023-01-29T03:58:16.340Z,43.40
2023-01-29T04:00:47.810Z,38.40
2023-01-29T04:03:18.198Z,40.50
2023-01-29T04:05:50.289Z,36.50
2023-01-29T04:08:25.539Z,38.50
2023-01-29T04:10:53.779Z,39.50
2023-01-29T04:13:21.906Z,44.80
2023-01-29T04:15:55.363Z,31.00
2023-01-29T04:18:37.680Z,42.00
2023-01-29T04:21:10.322Z,38.33
2023-01-29T04:23:38.365Z,44.00
2023-01-29T04:26:23.735Z,46.80
2023-01-29T04:29:13.194Z,36.50
2023-01-29T04:31:46.753Z,40.40
2023-01-29T04:34:20.275Z,41.80
2023-01-29T04:36:52.899Z,34.40
2023-01-29T04:39:23.908Z,35.50
2023-01-29T04:41:54.461Z,48.75
2023-01-29T04:44:24.096Z,54.00
2023-01-29T04:46:54.290Z,43.75
2023-01-29T04:49:28.828Z,40.80
2023-01-29T04:51:59.659Z,34.00
2023-01-29T04:54:32.755Z,33.80
2023-01-29T04:57:05.249Z,48.00
2023-01-29T04:59:35.054Z,43.33
2023-01-29T05:02:04.461Z,39.75
2023-01-29T05:04:33.444Z,39.80
2023-01-29T05:07:03.687Z,44.60
2023-01-29T05:09:31.715Z,48.50
2023-01-29T05:11:59.781Z,45.00
2023-01-29T05:14:27.833Z,41.20
2023-01-29T05:16:55.892Z,42.20
2023-01-29T05:19:25.345Z,36.75
2023-01-29T05:21:53.380Z,44.50
2023-01-29T05:24:22.488Z,39.67
2023-01-29T05:27:09.115Z,40.40
2023-01-29T05:29:37.146Z,37.80
2023-01-29T05:32:05.227Z,31.50
2023-01-29T05:34:34.823Z,44.25
2023-01-29T05:37:02.934Z,33.50
2023-01-29T05:39:31.001Z,42.50
2023-01-29T05:41:59.069Z,48.60
2023-01-29T05:44:27.099Z,44.00
2023-01-29T05:46:55.235Z,37.80
2023-01-29T05:49:23.472Z,43.00
2023-01-29T05:51:52.891Z,49.25
2023-01-29T05:54:20.950Z,42.00
2023-01-29T05:56:49.017Z,43.00
2023-01-29T05:59:17.115Z,35.00
2023-01-29T06:01:45.195Z,47.20
2023-01-29T06:04:13.268Z,46.80
2023-01-29T06:06:41.355Z,41.60
2023-01-29T06:09:12.492Z,43.00
2023-01-29T06:11:40.706Z,39.40
2023-01-29T06:14:08.774Z,40.75
2023-01-29T06:16:36.844Z,53.00
2023-01-29T06:19:04.889Z,37.25
2023-01-29T06:21:32.950Z,38.75
2023-01-29T06:24:01.029Z,51.00
2023-01-29T06:26:30.482Z,45.75
2023-01-29T06:28:58.512Z,41.25
2023-01-29T06:31:38.430Z,48.40
2023-01-29T06:34:07.084Z,37.80
2023-01-29T06:36:35.292Z,56.00
2023-01-29T06:39:03.379Z,52.25
2023-01-29T06:41:32.780Z,39.25
2023-01-29T06:44:00.817Z,45.00
2023-01-29T06:46:28.867Z,43.25
2023-01-29T06:48:59.369Z,36.25
2023-01-29T06:51:27.431Z,48.60
2023-01-29T06:53:56.211Z,53.50
2023-01-29T06:56:24.735Z,35.80
2023-01-29T06:58:54.112Z,42.00
2023-01-29T07:01:35.259Z,36.00
2023-01-29T07:04:04.500Z,39.20
2023-01-29T07:06:32.699Z,43.20
2023-01-29T07:09:00.754Z,49.00
2023-01-29T07:11:28.855Z,47.50
2023-01-29T07:13:58.261Z,44.00
2023-01-29T07:16:26.555Z,51.50
2023-01-29T07:18:54.723Z,44.00
2023-01-29T07:21:22.808Z,51.80
2023-01-29T07:23:50.853Z,48.50
2023-01-29T07:26:18.921Z,50.25
2023-01-29T07:28:46.948Z,51.00
2023-01-29T07:31:16.533Z,44.00
2023-01-29T07:33:45.268Z,48.50
2023-01-29T07:36:13.505Z,52.25
2023-01-29T07:38:41.552Z,38.75
2023-01-29T07:41:10.705Z,47.00
2023-01-29T07:43:38.739Z,45.33
2023-01-29T07:46:07.099Z,47.60
2023-01-29T07:48:36.571Z,50.60
2023-01-29T07:51:04.734Z,44.25
2023-01-29T07:53:32.848Z,52.33
2023-01-29T07:56:00.917Z,54.20
2023-01-29T07:58:28.945Z,47.40
2023-01-29T08:00:57.028Z,36.33
2023-01-29T08:03:25.081Z,48.25
2023-01-29T08:05:54.499Z,48.00
2023-01-29T08:08:22.526Z,49.00
2023-01-29T08:10:50.580Z,50.75
2023-01-29T08:13:18.610Z,43.80
2023-01-29T08:15:46.718Z,36.40
2023-01-29T08:18:14.981Z,54.40
2023-01-29T08:20:43.013Z,47.25
2023-01-29T08:23:14.868Z,48.20
2023-01-29T08:25:43.006Z,51.75
2023-01-29T08:28:11.879Z,43.80
2023-01-29T08:30:39.970Z,39.60
2023-01-29T08:33:08.047Z,58.80
2023-01-29T08:35:36.149Z,96.00
2023-01-29T08:38:04.675Z,50.40
2023-01-29T08:40:34.639Z,49.25
2023-01-29T08:43:03.997Z,43.00
2023-01-29T08:45:33.270Z,45.60
2023-01-29T08:48:01.338Z,52.67
2023-01-29T08:50:30.620Z,132.25
2023-01-29T08:52:58.933Z,82.25
2023-01-29T08:55:27.097Z,44.25
2023-01-29T08:57:57.430Z,59.40
2023-01-29T09:00:25.825Z,42.00
2023-01-29T09:02:53.940Z,47.25
2023-01-29T09:05:21.969Z,58.50
2023-01-29T09:07:50.211Z,49.50
2023-01-29T09:10:19.490Z,45.80
2023-01-29T09:12:47.741Z,50.80
2023-01-29T09:15:17.530Z,34.00
2023-01-29T09:17:45.959Z,40.25
2023-01-29T09:20:14.064Z,47.00
2023-01-29T09:22:42.267Z,46.00
2023-01-29T09:25:10.822Z,39.00
2023-01-29T09:27:38.880Z,41.50
2023-01-29T09:30:08.136Z,42.75
2023-01-29T09:32:53.259Z,52.25
2023-01-29T09:35:21.922Z,45.80
2023-01-29T09:37:50.003Z,32.00
2023-01-29T09:40:24.821Z,36.00
2023-01-29T09:42:55.380Z,40.40
2023-01-29T09:45:25.111Z,41.60
2023-01-29T09:47:54.532Z,64.20
2023-01-29T09:50:24.700Z,52.25
2023-01-29T09:52:53.991Z,53.00
2023-01-29T09:55:23.798Z,38.50
2023-01-29T09:57:53.268Z,39.00
2023-01-29T10:00:24.468Z,37.50
2023-01-29T10:03:09.644Z,34.75
2023-01-29T10:05:44.882Z,59.60
2023-01-29T10:08:42.558Z,36.75
2023-01-29T10:11:14.578Z,43.00
2023-01-29T10:13:45.973Z,44.75
2023-01-29T10:16:27.042Z,41.60
2023-01-29T10:19:21.329Z,44.40
2023-01-29T10:22:06.662Z,43.25
2023-01-29T10:24:38.002Z,41.00
2023-01-29T10:27:13.249Z,42.00
2023-01-29T10:29:42.123Z,49.50
2023-01-29T10:32:10.832Z,42.25
2023-01-29T10:34:43.056Z,62.00
2023-01-29T10:37:16.675Z,61.25
2023-01-29T10:39:44.711Z,58.20
2023-01-29T10:42:22.369Z,60.25
2023-01-29T10:45:01.995Z,53.20
2023-01-29T10:47:46.843Z,45.00
2023-01-29T10:50:24.758Z,52.00
2023-01-29T10:53:01.002Z,47.20
2023-01-29T10:55:35.940Z,70.40
2023-01-29T10:58:08.333Z,44.00
2023-01-29T11:00:37.289Z,47.50
2023-01-29T11:03:26.329Z,44.25
2023-01-29T11:06:00.376Z,52.80
2023-01-29T11:08:29.855Z,48.80
2023-01-29T11:11:02.616Z,51.20
2023-01-29T11:13:35.039Z,56.00
2023-01-29T11:16:05.156Z,54.25
2023-01-29T11:18:49.646Z,47.00
2023-01-29T11:21:19.036Z,66.00
2023-01-29T11:23:47.345Z,65.00
2023-01-29T11:26:18.098Z,46.80
2023-01-29T11:28:46.862Z,54.00
2023-01-29T11:31:19.822Z,56.25
2023-01-29T11:33:47.948Z,41.50
2023-01-29T11:36:29.378Z,54.25
2023-01-29T11:39:17.345Z,40.20
2023-01-29T11:41:46.791Z,28.50
2023-01-29T11:44:22.239Z,39.80
2023-01-29T11:46:50.277Z,36.33
2023-01-29T11:49:24.853Z,53.25
2023-01-29T11:51:55.565Z,49.80
2023-01-29T11:54:23.690Z,45.75
2023-01-29T11:56:51.888Z,44.50
2023-01-29T11:59:28.323Z,45.00
2023-01-29T12:01:56.400Z,55.80
2023-01-29T12:04:25.138Z,38.20
2023-01-29T12:06:54.545Z,33.20
2023-01-29T12:09:23.219Z,46.00
2023-01-29T12:11:52.723Z,80.75
2023-01-29T12:14:30.026Z,46.00
2023-01-29T12:16:59.329Z,39.60
2023-01-29T12:19:29.423Z,47.00
2023-01-29T12:22:02.919Z,41.80
2023-01-29T12:24:34.284Z,33.00
2023-01-29T12:27:06.252Z,39.00
2023-01-29T12:29:38.506Z,57.75
2023-01-29T12:32:09.001Z,40.00
2023-01-29T12:34:44.586Z,48.50
2023-01-29T12:37:18.749Z,48.50
2023-01-29T12:39:46.861Z,52.50
2023-01-29T12:42:16.903Z,61.60
2023-01-29T12:44:46.168Z,51.25
2023-01-29T12:47:17.154Z,49.40
2023-01-29T12:49:45.302Z,47.00
2023-01-29T12:52:16.275Z,64.00
2023-01-29T12:54:47.757Z,47.75
2023-01-29T12:57:20.723Z,62.20
2023-01-29T12:59:50.661Z,53.33
2023-01-29T13:02:25.517Z,64.20
2023-01-29T13:04:56.865Z,51.60
2023-01-29T13:07:27.385Z,58.50
2023-01-29T13:09:57.624Z,43.00
2023-01-29T13:12:25.644Z,66.67
2023-01-29T13:14:55.222Z,47.60
2023-01-29T13:17:26.575Z,60.00
2023-01-29T13:19:56.050Z,41.80
2023-01-29T13:22:27.991Z,33.00
2023-01-29T13:25:04.705Z,37.60
2023-01-29T13:27:34.222Z,41.00
2023-01-29T13:30:02.594Z,43.00
2023-01-29T13:32:31.383Z,51.20
2023-01-29T13:35:00.361Z,38.50
2023-01-29T13:37:34.549Z,37.25
2023-01-29T13:40:03.738Z,45.00
2023-01-29T13:42:40.039Z,28.50
2023-01-29T13:45:09.601Z,31.75
2023-01-29T13:47:38.248Z,34.20
2023-01-29T13:50:07.829Z,34.00
2023-01-29T13:52:40.984Z,41.50
2023-01-29T13:55:10.830Z,35.00
2023-01-29T13:57:56.184Z,43.00
2023-01-29T14:01:01.458Z,47.50
2023-01-29T14:04:04.905Z,45.25
2023-01-29T14:06:50.702Z,53.00
2023-01-29T14:09:58.062Z,46.80
2023-01-29T14:12:41.109Z,36.20
2023-01-29T14:15:36.193Z,39.00
2023-01-29T14:18:26.089Z,46.00
2023-01-29T14:21:01.771Z,48.50
2023-01-29T14:23:41.477Z,41.75
2023-01-29T14:26:30.172Z,50.20
2023-01-29T14:29:02.402Z,55.40
2023-01-29T14:31:43.538Z,43.80
2023-01-29T14:34:17.557Z,49.20
2023-01-29T14:36:46.158Z,37.00
2023-01-29T14:39:48.242Z,38.40
2023-01-29T14:42:20.582Z,55.00
2023-01-29T14:45:01.279Z,48.00
2023-01-29T14:47:58.252Z,45.50
2023-01-29T14:50:44.396Z,52.25
2023-01-29T14:53:14.290Z,51.75
2023-01-29T14:55:43.007Z,48.25
2023-01-29T14:58:13.945Z,46.25
2023-01-29T15:00:44.792Z,54.00
2023-01-29T15:03:14.732Z,51.60
2023-01-29T15:05:42.853Z,47.75
2023-01-29T15:08:17.143Z,44.33
2023-01-29T15:10:46.677Z,59.80
2023-01-29T15:13:16.329Z,53.25
2023-01-29T15:15:48.696Z,46.80
2023-01-29T15:18:17.374Z,55.20
2023-01-29T15:20:45.505Z,43.50
2023-01-29T15:23:26.838Z,62.50
2023-01-29T15:25:56.311Z,41.25
2023-01-29T15:28:24.431Z,54.50
2023-01-29T15:30:56.218Z,52.50
2023-01-29T15:33:24.399Z,45.60
2023-01-29T15:36:06.723Z,57.20
2023-01-29T15:38:35.398Z,53.80
2023-01-29T15:41:04.850Z,58.25
2023-01-29T15:43:35.670Z,64.50
2023-01-29T15:46:06.103Z,56.25
2023-01-29T15:48:36.365Z,47.00
2023-01-29T15:51:07.356Z,51.40
2023-01-29T15:53:37.331Z,57.80
2023-01-29T15:56:09.200Z,49.00
2023-01-29T15:58:37.237Z,50.80
2023-01-29T16:01:07.252Z,49.00
2023-01-29T16:03:35.458Z,52.00
2023-01-29T16:06:03.478Z,50.50
2023-01-29T16:08:31.548Z,48.00
2023-01-29T16:11:00.543Z,44.50
2023-01-29T16:13:29.632Z,40.60
2023-01-29T16:15:58.905Z,52.25
2023-01-29T16:18:30.850Z,49.40
2023-01-29T16:20:59.489Z,43.60
2023-01-29T16:23:28.724Z,48.00
2023-01-29T16:25:57.404Z,54.40
2023-01-29T16:28:25.430Z,47.00
2023-01-29T16:30:56.618Z,46.60
2023-01-29T16:33:25.643Z,53.40
2023-01-29T16:35:55.039Z,48.50
2023-01-29T16:38:28.411Z,51.50
2023-01-29T16:41:15.795Z,53.40
2023-01-29T16:43:50.863Z,50.00
2023-01-29T16:46:26.116Z,46.00
2023-01-29T16:48:54.386Z,54.50
2023-01-29T16:51:26.285Z,50.00
2023-01-29T16:53:59.125Z,46.00
2023-01-29T16:56:27.507Z,50.80
2023-01-29T16:58:55.565Z,47.75
2023-01-29T17:01:24.380Z,45.00
2023-01-29T17:03:58.231Z,43.60
2023-01-29T17:06:27.735Z,53.00
2023-01-29T17:08:55.788Z,44.40
2023-01-29T17:11:29.450Z,41.40
2023-01-29T17:13:57.854Z,51.75
2023-01-29T17:16:28.310Z,47.60
2023-01-29T17:18:56.415Z,51.80
2023-01-29T17:21:24.467Z,56.67
2023-01-29T17:23:53.964Z,44.00
2023-01-29T17:26:22.062Z,47.50
2023-01-29T17:28:50.521Z,47.75
2023-01-29T17:31:18.675Z,44.80
2023-01-29T17:33:46.767Z,42.00
2023-01-29T17:36:15.718Z,45.50
2023-01-29T17:38:43.765Z,45.25
2023-01-29T17:41:17.146Z,42.50
2023-01-29T17:43:45.331Z,49.75
2023-01-29T17:46:14.834Z,46.20
2023-01-29T17:48:42.954Z,47.20
2023-01-29T17:51:13.106Z,47.80
2023-01-29T17:53:45.967Z,38.50
2023-01-29T17:56:19.939Z,36.00
2023-01-29T17:58:47.986Z,52.50
2023-01-29T18:01:16.152Z,46.00
2023-01-29T18:03:44.194Z,52.25
2023-01-29T18:06:12.775Z,46.00
2023-01-29T18:08:40.868Z,44.50
2023-01-29T18:11:11.141Z,44.40
2023-01-29T18:13:41.997Z,44.00
2023-01-29T18:16:10.165Z,40.75
2023-01-29T18:18:38.246Z,43.00
2023-01-29T18:21:07.905Z,44.75
2023-01-29T18:23:35.960Z,38.50
2023-01-29T18:26:04.034Z,39.75
2023-01-29T18:28:32.083Z,49.50
2023-01-29T18:31:02.413Z,44.00
2023-01-29T18:33:31.222Z,39.00
2023-01-29T18:35:59.287Z,32.60
2023-01-29T18:38:27.571Z,49.25
2023-01-29T18:40:55.623Z,44.00
2023-01-29T18:43:26.204Z,33.00
2023-01-29T18:45:58.184Z,35.25
2023-01-29T18:48:27.636Z,45.50
2023-01-29T18:50:55.682Z,45.00
2023-01-29T18:53:23.760Z,37.20
2023-01-29T18:55:58.711Z,45.20
2023-01-29T18:58:36.148Z,30.00
2023-01-29T19:01:09.081Z,50.00
2023-01-29T19:03:38.726Z,41.50
2023-01-29T19:06:07.918Z,32.20
2023-01-29T19:08:36.024Z,30.67
2023-01-29T19:11:08.111Z,35.00
2023-01-29T19:13:37.043Z,34.40
2023-01-29T19:16:08.084Z,38.00
2023-01-29T19:18:36.139Z,45.80
2023-01-29T19:21:09.007Z,33.50
2023-01-29T19:23:37.075Z,43.50
2023-01-29T19:26:05.471Z,39.25
2023-01-29T19:28:33.561Z,41.25
2023-01-29T19:31:01.705Z,37.60
2023-01-29T19:33:29.822Z,35.00
2023-01-29T19:35:57.894Z,39.50
2023-01-29T19:38:27.348Z,35.40
2023-01-29T19:40:56.227Z,38.40
2023-01-29T19:43:24.281Z,38.40
2023-01-29T19:45:58.339Z,37.00
2023-01-29T19:48:26.575Z,50.20
2023-01-29T19:50:54.758Z,29.60
2023-01-29T19:53:22.909Z,29.25
2023-01-29T19:55:59.825Z,42.00
2023-01-29T19:58:27.910Z,37.75
2023-01-29T20:00:57.318Z,39.50
2023-01-29T20:03:25.518Z,40.00
2023-01-29T20:05:53.594Z,38.20
2023-01-29T20:08:22.367Z,35.25
2023-01-29T20:10:50.464Z,41.40
2023-01-29T20:13:19.865Z,37.00
2023-01-29T20:15:47.994Z,34.75
2023-01-29T20:18:16.294Z,37.40
2023-01-29T20:20:44.611Z,39.00
2023-01-29T20:23:12.841Z,41.60
2023-01-29T20:25:40.883Z,39.40
2023-01-29T20:28:12.217Z,35.50
2023-01-29T20:30:41.881Z,35.00
2023-01-29T20:33:09.970Z,42.80
2023-01-29T20:35:38.627Z,40.00
2023-01-29T20:38:06.780Z,37.00
2023-01-29T20:40:34.876Z,37.00
2023-01-29T20:43:02.903Z,24.00
2023-01-29T20:45:33.084Z,30.40
2023-01-29T20:48:02.595Z,32.40
2023-01-29T20:50:30.655Z,39.75
2023-01-29T20:52:58.675Z,36.50
2023-01-29T20:55:27.044Z,30.00
2023-01-29T20:58:05.381Z,30.00
2023-01-29T21:00:34.698Z,34.60
2023-01-29T21:03:04.170Z,35.75
2023-01-29T21:05:32.405Z,33.20
2023-01-29T21:08:00.417Z,34.40
2023-01-29T21:10:28.529Z,33.00
2023-01-29T21:12:56.547Z,32.50
2023-01-29T21:15:27.348Z,31.00
2023-01-29T21:17:55.463Z,28.60
2023-01-29T21:20:24.870Z,26.00
2023-01-29T21:22:52.913Z,29.00
2023-01-29T21:25:21.515Z,27.40
2023-01-29T21:27:49.506Z,29.00
2023-01-29T21:30:18.758Z,39.00
2023-01-29T21:32:47.229Z,37.60
2023-01-29T21:35:15.471Z,29.20
2023-01-29T21:37:44.850Z,34.40
2023-01-29T21:40:13.282Z,33.80
2023-01-29T21:42:58.719Z,39.40
2023-01-29T21:45:26.771Z,34.00
2023-01-29T21:47:54.787Z,31.40
2023-01-29T21:50:22.836Z,36.40
2023-01-29T21:52:52.205Z,33.75
2023-01-29T21:55:20.249Z,24.40
2023-01-29T21:57:48.776Z,34.40
2023-01-29T22:00:18.173Z,41.00
2023-01-29T22:02:46.597Z,35.00
2023-01-29T22:05:19.822Z,26.80
2023-01-29T22:07:48.316Z,23.80
2023-01-29T22:10:18.930Z,37.40
2023-01-29T22:12:47.575Z,34.00
2023-01-29T22:15:15.935Z,25.75
2023-01-29T22:17:44.039Z,25.50
2023-01-29T22:20:13.339Z,33.40
2023-01-29T22:22:41.483Z,40.20
2023-01-29T22:25:10.521Z,23.00
2023-01-29T22:27:39.908Z,27.60
2023-01-29T22:30:09.341Z,26.80
2023-01-29T22:32:37.479Z,27.50
2023-01-29T22:35:06.194Z,29.80
2023-01-29T22:37:34.290Z,20.00
2023-01-29T22:40:02.299Z,27.20
2023-01-29T22:42:30.346Z,23.00
2023-01-29T22:44:59.720Z,27.00
2023-01-29T22:47:27.767Z,28.40
2023-01-29T22:49:55.797Z,22.60
2023-01-29T22:52:23.859Z,25.50
2023-01-29T22:54:52.220Z,29.00
2023-01-29T22:57:20.422Z,23.00
2023-01-29T22:59:48.444Z,24.80
2023-01-29T23:02:17.839Z,20.00
2023-01-29T23:04:45.918Z,19.50
2023-01-29T23:07:13.988Z,23.80
2023-01-29T23:09:42.055Z,23.75
2023-01-29T23:12:10.083Z,24.80
2023-01-29T23:14:38.120Z,20.20
2023-01-29T23:17:06.166Z,23.00
2023-01-29T23:19:35.543Z,26.00
2023-01-29T23:22:03.651Z,30.40
2023-01-29T23:24:31.672Z,26.20
2023-01-29T23:27:16.850Z,29.80
2023-01-29T23:29:45.101Z,28.00
2023-01-29T23:32:13.709Z,28.00
2023-01-29T23:34:43.100Z,25.20
2023-01-29T23:37:11.240Z,29.50
2023-01-29T23:39:39.248Z,24.00
2023-01-29T23:42:07.338Z,29.20
2023-01-29T23:44:35.634Z,26.20
2023-01-29T23:47:03.738Z,29.00
2023-01-29T23:49:31.771Z,31.20
2023-01-29T23:52:01.192Z,33.20
2023-01-29T23:54:29.272Z,23.60
2023-01-29T23:56:57.347Z,30.40
2023-01-29T23:59:28.160Z,30.75
